sensor_id;sensor_type;location;lat;lon;timestamp;temperature;humidity
49222;DHT22;35047;37.588;-122.048;2023-02-13T00:00:23;24.20;47.70
49222;DHT22;35047;37.588;-122.048;2023-02-13T00:02:51;24.30;46.50
49222;DHT22;35047;37.588;-122.048;2023-02-13T00:05:17;24.20;46.00
49222;DHT22;35047;37.588;-122.048;2023-02-13T00:07:45;24.20;47.00
49222;DHT22;35047;37.588;-122.048;2023-02-13T00:10:11;24.20;46.80
49222;DHT22;35047;37.588;-122.048;2023-02-13T00:12:38;24.20;47.10
49222;DHT22;35047;37.588;-122.048;2023-02-13T00:15:06;24.20;47.90
49222;DHT22;35047;37.588;-122.048;2023-02-13T00:17:34;24.10;48.40
49222;DHT22;35047;37.588;-122.048;2023-02-13T00:20:01;24.00;48.60
49222;DHT22;35047;37.588;-122.048;2023-02-13T00:22:29;23.90;48.40
49222;DHT22;35047;37.588;-122.048;2023-02-13T00:24:55;23.90;48.80
49222;DHT22;35047;37.588;-122.048;2023-02-13T00:27:22;23.90;49.20
49222;DHT22;35047;37.588;-122.048;2023-02-13T00:29:49;23.90;49.80
49222;DHT22;35047;37.588;-122.048;2023-02-13T00:32:17;23.80;51.00
49222;DHT22;35047;37.588;-122.048;2023-02-13T00:34:43;23.80;51.20
49222;DHT22;35047;37.588;-122.048;2023-02-13T00:37:11;23.60;51.50
49222;DHT22;35047;37.588;-122.048;2023-02-13T00:39:38;23.50;52.10
49222;DHT22;35047;37.588;-122.048;2023-02-13T00:42:05;23.50;52.30
49222;DHT22;35047;37.588;-122.048;2023-02-13T00:44:32;23.20;52.80
49222;DHT22;35047;37.588;-122.048;2023-02-13T00:47:00;23.30;53.30
49222;DHT22;35047;37.588;-122.048;2023-02-13T00:49:28;23.30;53.50
49222;DHT22;35047;37.588;-122.048;2023-02-13T00:51:54;23.30;54.10
49222;DHT22;35047;37.588;-122.048;2023-02-13T00:54:21;23.30;54.10
49222;DHT22;35047;37.588;-122.048;2023-02-13T00:56:48;23.20;53.90
49222;DHT22;35047;37.588;-122.048;2023-02-13T00:59:15;23.20;54.10
49222;DHT22;35047;37.588;-122.048;2023-02-13T01:01:42;23.20;52.90
49222;DHT22;35047;37.588;-122.048;2023-02-13T01:04:09;23.10;52.40
49222;DHT22;35047;37.588;-122.048;2023-02-13T01:06:36;23.10;52.40
49222;DHT22;35047;37.588;-122.048;2023-02-13T01:09:03;23.00;52.50
49222;DHT22;35047;37.588;-122.048;2023-02-13T01:11:30;22.90;52.80
49222;DHT22;35047;37.588;-122.048;2023-02-13T01:13:57;22.80;53.30
49222;DHT22;35047;37.588;-122.048;2023-02-13T01:16:24;22.70;54.10
49222;DHT22;35047;37.588;-122.048;2023-02-13T01:18:50;22.70;54.50
49222;DHT22;35047;37.588;-122.048;2023-02-13T01:21:19;22.60;54.70
49222;DHT22;35047;37.588;-122.048;2023-02-13T01:23:48;22.60;55.10
49222;DHT22;35047;37.588;-122.048;2023-02-13T01:26:22;22.40;55.60
49222;DHT22;35047;37.588;-122.048;2023-02-13T01:28:52;22.30;56.00
49222;DHT22;35047;37.588;-122.048;2023-02-13T01:31:20;22.30;56.40
49222;DHT22;35047;37.588;-122.048;2023-02-13T01:33:48;22.20;56.60
49222;DHT22;35047;37.588;-122.048;2023-02-13T01:36:15;22.20;56.80
49222;DHT22;35047;37.588;-122.048;2023-02-13T01:38:43;22.10;56.80
49222;DHT22;35047;37.588;-122.048;2023-02-13T01:41:10;22.10;56.70
49222;DHT22;35047;37.588;-122.048;2023-02-13T01:43:44;22.00;56.40
49222;DHT22;35047;37.588;-122.048;2023-02-13T01:46:15;22.00;56.40
49222;DHT22;35047;37.588;-122.048;2023-02-13T01:48:44;21.80;56.50
49222;DHT22;35047;37.588;-122.048;2023-02-13T01:51:22;21.80;56.70
49222;DHT22;35047;37.588;-122.048;2023-02-13T01:54:01;21.80;56.80
49222;DHT22;35047;37.588;-122.048;2023-02-13T01:56:36;21.70;56.90
49222;DHT22;35047;37.588;-122.048;2023-02-13T01:59:12;21.70;57.00
49222;DHT22;35047;37.588;-122.048;2023-02-13T02:01:40;21.60;57.30
49222;DHT22;35047;37.588;-122.048;2023-02-13T02:04:30;21.50;57.50
49222;DHT22;35047;37.588;-122.048;2023-02-13T02:07:07;21.50;57.60
49222;DHT22;35047;37.588;-122.048;2023-02-13T02:09:41;21.40;57.60
49222;DHT22;35047;37.588;-122.048;2023-02-13T02:12:11;21.40;58.30
49222;DHT22;35047;37.588;-122.048;2023-02-13T02:14:40;21.40;57.90
49222;DHT22;35047;37.588;-122.048;2023-02-13T02:17:09;21.40;58.00
49222;DHT22;35047;37.588;-122.048;2023-02-13T02:47:44;20.60;59.40
49222;DHT22;35047;37.588;-122.048;2023-02-13T02:50:50;20.50;59.20
49222;DHT22;35047;37.588;-122.048;2023-02-13T02:56:07;20.30;59.30
49222;DHT22;35047;37.588;-122.048;2023-02-13T03:01:26;20.10;59.80
49222;DHT22;35047;37.588;-122.048;2023-02-13T03:04:38;20.10;60.10
49222;DHT22;35047;37.588;-122.048;2023-02-13T03:07:26;20.00;60.20
49222;DHT22;35047;37.588;-122.048;2023-02-13T03:09:54;19.90;60.40
49222;DHT22;35047;37.588;-122.048;2023-02-13T03:13:05;19.90;60.50
49222;DHT22;35047;37.588;-122.048;2023-02-13T03:16:02;19.90;60.70
49222;DHT22;35047;37.588;-122.048;2023-02-13T03:18:55;19.70;60.90
49222;DHT22;35047;37.588;-122.048;2023-02-13T03:22:01;19.70;61.00
49222;DHT22;35047;37.588;-122.048;2023-02-13T03:25:16;19.60;61.00
49222;DHT22;35047;37.588;-122.048;2023-02-13T03:28:26;19.50;61.50
49222;DHT22;35047;37.588;-122.048;2023-02-13T03:31:34;19.40;61.80
49222;DHT22;35047;37.588;-122.048;2023-02-13T03:34:12;19.30;61.80
49222;DHT22;35047;37.588;-122.048;2023-02-13T03:43:07;19.00;62.40
49222;DHT22;35047;37.588;-122.048;2023-02-13T03:45:37;19.00;62.50
49222;DHT22;35047;37.588;-122.048;2023-02-13T03:48:23;18.90;62.60
49222;DHT22;35047;37.588;-122.048;2023-02-13T03:51:13;18.90;62.80
49222;DHT22;35047;37.588;-122.048;2023-02-13T03:53:43;18.80;62.80
49222;DHT22;35047;37.588;-122.048;2023-02-13T03:56:12;18.70;62.80
49222;DHT22;35047;37.588;-122.048;2023-02-13T03:58:58;18.60;62.90
49222;DHT22;35047;37.588;-122.048;2023-02-13T04:02:12;18.50;63.10
49222;DHT22;35047;37.588;-122.048;2023-02-13T04:04:49;18.50;63.60
49222;DHT22;35047;37.588;-122.048;2023-02-13T04:07:19;18.40;63.90
49222;DHT22;35047;37.588;-122.048;2023-02-13T04:10:09;18.30;63.60
49222;DHT22;35047;37.588;-122.048;2023-02-13T04:18:28;18.10;63.70
49222;DHT22;35047;37.588;-122.048;2023-02-13T04:21:04;18.10;63.90
49222;DHT22;35047;37.588;-122.048;2023-02-13T04:23:31;18.00;64.60
49222;DHT22;35047;37.588;-122.048;2023-02-13T04:26:01;18.00;64.20
49222;DHT22;35047;37.588;-122.048;2023-02-13T04:28:29;17.90;64.10
49222;DHT22;35047;37.588;-122.048;2023-02-13T04:30:56;17.90;64.20
49222;DHT22;35047;37.588;-122.048;2023-02-13T04:33:24;17.80;63.90
49222;DHT22;35047;37.588;-122.048;2023-02-13T04:35:51;17.80;63.90
49222;DHT22;35047;37.588;-122.048;2023-02-13T04:38:18;17.70;64.20
49222;DHT22;35047;37.588;-122.048;2023-02-13T04:40:45;17.60;64.30
49222;DHT22;35047;37.588;-122.048;2023-02-13T04:43:12;17.60;64.30
49222;DHT22;35047;37.588;-122.048;2023-02-13T04:45:40;17.60;64.40
49222;DHT22;35047;37.588;-122.048;2023-02-13T04:48:06;17.50;64.20
49222;DHT22;35047;37.588;-122.048;2023-02-13T04:50:34;17.50;64.40
49222;DHT22;35047;37.588;-122.048;2023-02-13T04:53:00;17.40;64.70
49222;DHT22;35047;37.588;-122.048;2023-02-13T04:55:27;17.30;64.80
49222;DHT22;35047;37.588;-122.048;2023-02-13T04:57:55;17.30;65.50
49222;DHT22;35047;37.588;-122.048;2023-02-13T05:00:23;17.30;64.70
49222;DHT22;35047;37.588;-122.048;2023-02-13T05:02:51;17.20;64.70
49222;DHT22;35047;37.588;-122.048;2023-02-13T05:05:19;17.20;64.70
49222;DHT22;35047;37.588;-122.048;2023-02-13T05:07:47;17.20;64.80
49222;DHT22;35047;37.588;-122.048;2023-02-13T05:10:14;17.20;64.60
49222;DHT22;35047;37.588;-122.048;2023-02-13T05:12:41;17.10;64.70
49222;DHT22;35047;37.588;-122.048;2023-02-13T05:15:08;17.10;65.00
49222;DHT22;35047;37.588;-122.048;2023-02-13T05:17:35;17.00;64.90
49222;DHT22;35047;37.588;-122.048;2023-02-13T05:20:02;17.00;64.70
49222;DHT22;35047;37.588;-122.048;2023-02-13T05:22:29;17.00;64.50
49222;DHT22;35047;37.588;-122.048;2023-02-13T05:25:14;16.90;64.60
49222;DHT22;35047;37.588;-122.048;2023-02-13T05:27:41;16.80;64.80
49222;DHT22;35047;37.588;-122.048;2023-02-13T05:30:08;16.80;65.30
49222;DHT22;35047;37.588;-122.048;2023-02-13T05:32:35;16.70;65.30
49222;DHT22;35047;37.588;-122.048;2023-02-13T05:35:03;16.70;65.40
49222;DHT22;35047;37.588;-122.048;2023-02-13T05:37:31;16.60;65.40
49222;DHT22;35047;37.588;-122.048;2023-02-13T05:39:58;16.60;65.20
49222;DHT22;35047;37.588;-122.048;2023-02-13T05:42:25;16.60;65.40
49222;DHT22;35047;37.588;-122.048;2023-02-13T05:44:51;16.50;65.50
49222;DHT22;35047;37.588;-122.048;2023-02-13T05:47:18;16.50;66.00
49222;DHT22;35047;37.588;-122.048;2023-02-13T05:49:45;16.40;66.00
49222;DHT22;35047;37.588;-122.048;2023-02-13T05:52:12;16.40;65.90
49222;DHT22;35047;37.588;-122.048;2023-02-13T05:54:38;16.40;65.70
49222;DHT22;35047;37.588;-122.048;2023-02-13T05:57:06;16.30;65.60
49222;DHT22;35047;37.588;-122.048;2023-02-13T05:59:32;16.30;66.00
49222;DHT22;35047;37.588;-122.048;2023-02-13T06:01:59;16.30;65.90
49222;DHT22;35047;37.588;-122.048;2023-02-13T06:04:27;16.30;65.70
49222;DHT22;35047;37.588;-122.048;2023-02-13T06:06:53;16.20;65.70
49222;DHT22;35047;37.588;-122.048;2023-02-13T06:09:21;16.10;65.90
49222;DHT22;35047;37.588;-122.048;2023-02-13T06:11:48;16.10;66.40
49222;DHT22;35047;37.588;-122.048;2023-02-13T06:14:15;16.00;66.50
49222;DHT22;35047;37.588;-122.048;2023-02-13T06:16:42;16.00;66.40
49222;DHT22;35047;37.588;-122.048;2023-02-13T06:19:09;15.90;66.80
49222;DHT22;35047;37.588;-122.048;2023-02-13T06:21:36;15.80;67.10
49222;DHT22;35047;37.588;-122.048;2023-02-13T06:24:04;15.80;67.40
49222;DHT22;35047;37.588;-122.048;2023-02-13T06:26:31;15.80;67.30
49222;DHT22;35047;37.588;-122.048;2023-02-13T06:28:58;15.70;66.80
49222;DHT22;35047;37.588;-122.048;2023-02-13T06:31:26;15.70;66.90
49222;DHT22;35047;37.588;-122.048;2023-02-13T06:33:53;15.70;66.90
49222;DHT22;35047;37.588;-122.048;2023-02-13T06:36:20;15.70;67.00
49222;DHT22;35047;37.588;-122.048;2023-02-13T06:38:47;15.60;66.90
49222;DHT22;35047;37.588;-122.048;2023-02-13T06:41:14;15.60;66.90
49222;DHT22;35047;37.588;-122.048;2023-02-13T06:43:41;15.60;67.40
49222;DHT22;35047;37.588;-122.048;2023-02-13T06:46:08;15.70;67.60
49222;DHT22;35047;37.588;-122.048;2023-02-13T06:48:36;15.70;66.90
49222;DHT22;35047;37.588;-122.048;2023-02-13T06:51:05;15.70;66.50
49222;DHT22;35047;37.588;-122.048;2023-02-13T06:53:32;15.60;66.40
49222;DHT22;35047;37.588;-122.048;2023-02-13T06:56:03;15.60;66.70
49222;DHT22;35047;37.588;-122.048;2023-02-13T06:58:33;15.60;66.80
49222;DHT22;35047;37.588;-122.048;2023-02-13T07:00:59;15.50;67.10
49222;DHT22;35047;37.588;-122.048;2023-02-13T07:03:28;15.40;67.20
49222;DHT22;35047;37.588;-122.048;2023-02-13T07:05:55;15.40;66.90
49222;DHT22;35047;37.588;-122.048;2023-02-13T07:08:22;15.30;66.90
49222;DHT22;35047;37.588;-122.048;2023-02-13T07:10:49;15.30;67.70
49222;DHT22;35047;37.588;-122.048;2023-02-13T07:13:16;15.20;67.50
49222;DHT22;35047;37.588;-122.048;2023-02-13T07:15:43;15.10;67.60
49222;DHT22;35047;37.588;-122.048;2023-02-13T07:18:10;15.10;67.60
49222;DHT22;35047;37.588;-122.048;2023-02-13T07:20:37;15.10;67.50
49222;DHT22;35047;37.588;-122.048;2023-02-13T07:23:05;15.00;67.30
49222;DHT22;35047;37.588;-122.048;2023-02-13T07:25:32;15.00;67.70
49222;DHT22;35047;37.588;-122.048;2023-02-13T07:28:06;15.00;67.70
49222;DHT22;35047;37.588;-122.048;2023-02-13T07:30:34;14.90;67.40
49222;DHT22;35047;37.588;-122.048;2023-02-13T07:33:02;14.80;67.90
49222;DHT22;35047;37.588;-122.048;2023-02-13T07:35:31;14.80;68.10
49222;DHT22;35047;37.588;-122.048;2023-02-13T07:37:57;14.80;68.30
49222;DHT22;35047;37.588;-122.048;2023-02-13T07:40:25;14.80;68.40
49222;DHT22;35047;37.588;-122.048;2023-02-13T07:42:52;14.70;68.40
49222;DHT22;35047;37.588;-122.048;2023-02-13T07:45:19;14.70;68.40
49222;DHT22;35047;37.588;-122.048;2023-02-13T07:47:46;14.60;68.70
49222;DHT22;35047;37.588;-122.048;2023-02-13T07:50:13;14.70;68.70
49222;DHT22;35047;37.588;-122.048;2023-02-13T07:52:40;14.60;68.60
49222;DHT22;35047;37.588;-122.048;2023-02-13T07:55:08;14.60;68.50
49222;DHT22;35047;37.588;-122.048;2023-02-13T07:57:37;14.60;68.70
49222;DHT22;35047;37.588;-122.048;2023-02-13T08:00:04;14.50;68.60
49222;DHT22;35047;37.588;-122.048;2023-02-13T08:02:31;14.50;68.80
49222;DHT22;35047;37.588;-122.048;2023-02-13T08:04:57;14.50;68.90
49222;DHT22;35047;37.588;-122.048;2023-02-13T08:07:25;14.40;68.80
49222;DHT22;35047;37.588;-122.048;2023-02-13T08:09:51;14.40;68.80
49222;DHT22;35047;37.588;-122.048;2023-02-13T08:12:37;14.40;68.70
49222;DHT22;35047;37.588;-122.048;2023-02-13T08:15:04;14.40;68.80
49222;DHT22;35047;37.588;-122.048;2023-02-13T08:17:32;14.30;68.90
49222;DHT22;35047;37.588;-122.048;2023-02-13T08:19:58;14.30;69.10
49222;DHT22;35047;37.588;-122.048;2023-02-13T08:22:26;14.20;69.10
49222;DHT22;35047;37.588;-122.048;2023-02-13T08:24:52;14.20;69.00
49222;DHT22;35047;37.588;-122.048;2023-02-13T08:27:20;14.20;69.40
49222;DHT22;35047;37.588;-122.048;2023-02-13T08:29:48;14.10;69.50
49222;DHT22;35047;37.588;-122.048;2023-02-13T08:32:16;14.10;69.20
49222;DHT22;35047;37.588;-122.048;2023-02-13T08:34:43;14.10;69.30
49222;DHT22;35047;37.588;-122.048;2023-02-13T08:37:10;14.10;69.30
49222;DHT22;35047;37.588;-122.048;2023-02-13T08:39:36;14.10;69.10
49222;DHT22;35047;37.588;-122.048;2023-02-13T08:42:03;14.10;69.10
49222;DHT22;35047;37.588;-122.048;2023-02-13T08:44:29;14.10;69.20
49222;DHT22;35047;37.588;-122.048;2023-02-13T08:46:57;14.00;69.20
49222;DHT22;35047;37.588;-122.048;2023-02-13T08:49:32;14.00;69.10
49222;DHT22;35047;37.588;-122.048;2023-02-13T08:51:59;14.00;69.10
49222;DHT22;35047;37.588;-122.048;2023-02-13T08:54:27;14.00;69.20
49222;DHT22;35047;37.588;-122.048;2023-02-13T08:56:54;14.00;69.30
49222;DHT22;35047;37.588;-122.048;2023-02-13T08:59:22;13.90;69.30
49222;DHT22;35047;37.588;-122.048;2023-02-13T09:01:49;13.90;69.90
49222;DHT22;35047;37.588;-122.048;2023-02-13T09:04:16;13.90;69.70
49222;DHT22;35047;37.588;-122.048;2023-02-13T09:06:44;13.90;69.80
49222;DHT22;35047;37.588;-122.048;2023-02-13T09:09:10;13.90;69.70
49222;DHT22;35047;37.588;-122.048;2023-02-13T09:11:38;13.80;69.70
49222;DHT22;35047;37.588;-122.048;2023-02-13T09:14:04;13.80;69.80
49222;DHT22;35047;37.588;-122.048;2023-02-13T09:16:32;13.80;69.90
49222;DHT22;35047;37.588;-122.048;2023-02-13T09:18:59;13.70;70.00
49222;DHT22;35047;37.588;-122.048;2023-02-13T09:21:25;13.70;70.10
49222;DHT22;35047;37.588;-122.048;2023-02-13T09:23:53;13.60;70.20
49222;DHT22;35047;37.588;-122.048;2023-02-13T09:26:20;13.60;70.20
49222;DHT22;35047;37.588;-122.048;2023-02-13T09:28:47;13.60;70.50
49222;DHT22;35047;37.588;-122.048;2023-02-13T09:31:16;13.60;70.40
49222;DHT22;35047;37.588;-122.048;2023-02-13T09:33:45;13.50;70.80
49222;DHT22;35047;37.588;-122.048;2023-02-13T09:36:15;13.50;71.00
49222;DHT22;35047;37.588;-122.048;2023-02-13T09:38:46;13.40;70.90
49222;DHT22;35047;37.588;-122.048;2023-02-13T09:41:19;13.50;71.10
49222;DHT22;35047;37.588;-122.048;2023-02-13T09:43:59;13.40;70.90
49222;DHT22;35047;37.588;-122.048;2023-02-13T09:46:34;13.40;71.50
49222;DHT22;35047;37.588;-122.048;2023-02-13T09:49:11;13.30;71.30
49222;DHT22;35047;37.588;-122.048;2023-02-13T09:51:42;13.30;71.60
49222;DHT22;35047;37.588;-122.048;2023-02-13T09:54:14;13.30;71.90
49222;DHT22;35047;37.588;-122.048;2023-02-13T09:56:58;13.30;71.80
49222;DHT22;35047;37.588;-122.048;2023-02-13T10:05:20;13.40;71.30
49222;DHT22;35047;37.588;-122.048;2023-02-13T10:13:49;13.30;70.60
49222;DHT22;35047;37.588;-122.048;2023-02-13T10:16:24;13.30;70.70
49222;DHT22;35047;37.588;-122.048;2023-02-13T10:19:02;13.30;70.80
49222;DHT22;35047;37.588;-122.048;2023-02-13T10:21:35;13.30;70.70
49222;DHT22;35047;37.588;-122.048;2023-02-13T10:26:54;13.30;70.70
49222;DHT22;35047;37.588;-122.048;2023-02-13T10:29:36;13.30;70.70
49222;DHT22;35047;37.588;-122.048;2023-02-13T10:32:28;13.20;70.60
49222;DHT22;35047;37.588;-122.048;2023-02-13T10:34:58;13.20;70.60
49222;DHT22;35047;37.588;-122.048;2023-02-13T10:37:28;13.20;70.50
49222;DHT22;35047;37.588;-122.048;2023-02-13T10:39:55;13.20;70.60
49222;DHT22;35047;37.588;-122.048;2023-02-13T10:42:37;13.10;70.50
49222;DHT22;35047;37.588;-122.048;2023-02-13T11:01:59;13.00;71.80
49222;DHT22;35047;37.588;-122.048;2023-02-13T11:04:28;13.00;72.00
49222;DHT22;35047;37.588;-122.048;2023-02-13T11:07:00;13.00;71.70
49222;DHT22;35047;37.588;-122.048;2023-02-13T11:09:29;13.00;72.70
49222;DHT22;35047;37.588;-122.048;2023-02-13T11:12:04;13.00;72.40
49222;DHT22;35047;37.588;-122.048;2023-02-13T11:15:00;13.00;72.10
49222;DHT22;35047;37.588;-122.048;2023-02-13T11:17:30;12.90;72.50
49222;DHT22;35047;37.588;-122.048;2023-02-13T11:20:00;12.90;72.30
49222;DHT22;35047;37.588;-122.048;2023-02-13T11:22:39;12.90;72.00
49222;DHT22;35047;37.588;-122.048;2023-02-13T11:27:45;12.90;71.50
49222;DHT22;35047;37.588;-122.048;2023-02-13T11:30:34;12.90;71.70
49222;DHT22;35047;37.588;-122.048;2023-02-13T11:33:03;12.90;71.80
49222;DHT22;35047;37.588;-122.048;2023-02-13T11:35:31;12.90;71.90
49222;DHT22;35047;37.588;-122.048;2023-02-13T11:40:36;12.80;72.20
49222;DHT22;35047;37.588;-122.048;2023-02-13T11:43:13;12.80;72.20
49222;DHT22;35047;37.588;-122.048;2023-02-13T11:45:42;12.80;72.10
49222;DHT22;35047;37.588;-122.048;2023-02-13T11:48:20;12.80;72.00
49222;DHT22;35047;37.588;-122.048;2023-02-13T11:50:55;12.80;72.10
49222;DHT22;35047;37.588;-122.048;2023-02-13T11:53:30;12.70;72.40
49222;DHT22;35047;37.588;-122.048;2023-02-13T11:58:28;12.70;72.20
49222;DHT22;35047;37.588;-122.048;2023-02-13T12:01:24;12.60;72.10
49222;DHT22;35047;37.588;-122.048;2023-02-13T12:06:27;12.60;72.20
49222;DHT22;35047;37.588;-122.048;2023-02-13T12:08:54;12.60;71.90
49222;DHT22;35047;37.588;-122.048;2023-02-13T12:11:45;12.50;71.90
49222;DHT22;35047;37.588;-122.048;2023-02-13T12:14:18;12.50;72.10
49222;DHT22;35047;37.588;-122.048;2023-02-13T12:16:57;12.50;72.50
49222;DHT22;35047;37.588;-122.048;2023-02-13T12:19:46;12.50;72.40
49222;DHT22;35047;37.588;-122.048;2023-02-13T12:25:24;12.40;72.00
49222;DHT22;35047;37.588;-122.048;2023-02-13T12:38:36;12.40;72.10
49222;DHT22;35047;37.588;-122.048;2023-02-13T12:41:27;12.30;72.20
49222;DHT22;35047;37.588;-122.048;2023-02-13T12:44:35;12.30;72.30
49222;DHT22;35047;37.588;-122.048;2023-02-13T12:52:42;12.20;73.10
49222;DHT22;35047;37.588;-122.048;2023-02-13T12:55:36;12.20;72.90
49222;DHT22;35047;37.588;-122.048;2023-02-13T12:58:17;12.20;72.90
49222;DHT22;35047;37.588;-122.048;2023-02-13T13:03:42;12.20;73.30
49222;DHT22;35047;37.588;-122.048;2023-02-13T13:06:32;12.20;74.00
49222;DHT22;35047;37.588;-122.048;2023-02-13T13:09:30;12.20;73.50
49222;DHT22;35047;37.588;-122.048;2023-02-13T13:25:28;12.30;73.40
49222;DHT22;35047;37.588;-122.048;2023-02-13T13:28:07;12.30;73.70
49222;DHT22;35047;37.588;-122.048;2023-02-13T13:30:38;12.20;74.50
49222;DHT22;35047;37.588;-122.048;2023-02-13T13:33:19;12.30;75.30
49222;DHT22;35047;37.588;-122.048;2023-02-13T13:42:03;12.10;76.80
49222;DHT22;35047;37.588;-122.048;2023-02-13T13:48:05;11.90;78.90
49222;DHT22;35047;37.588;-122.048;2023-02-13T13:50:29;12.20;77.60
49222;DHT22;35047;37.588;-122.048;2023-02-13T13:55:59;12.30;76.20
49222;DHT22;35047;37.588;-122.048;2023-02-13T14:01:21;12.40;76.20
49222;DHT22;35047;37.588;-122.048;2023-02-13T14:03:56;12.50;75.70
49222;DHT22;35047;37.588;-122.048;2023-02-13T14:09:06;12.40;75.10
49222;DHT22;35047;37.588;-122.048;2023-02-13T14:11:54;12.40;75.00
49222;DHT22;35047;37.588;-122.048;2023-02-13T14:17:00;12.40;74.60
49222;DHT22;35047;37.588;-122.048;2023-02-13T14:19:38;12.50;74.60
49222;DHT22;35047;37.588;-122.048;2023-02-13T14:22:25;12.40;74.30
49222;DHT22;35047;37.588;-122.048;2023-02-13T14:24:57;12.40;74.20
49222;DHT22;35047;37.588;-122.048;2023-02-13T14:29:57;12.40;74.30
49222;DHT22;35047;37.588;-122.048;2023-02-13T14:35:13;12.30;74.10
49222;DHT22;35047;37.588;-122.048;2023-02-13T14:37:56;12.30;74.50
49222;DHT22;35047;37.588;-122.048;2023-02-13T14:40:31;12.30;74.40
49222;DHT22;35047;37.588;-122.048;2023-02-13T14:44:10;12.30;74.40
49222;DHT22;35047;37.588;-122.048;2023-02-13T14:48:55;12.10;75.00
49222;DHT22;35047;37.588;-122.048;2023-02-13T14:56:33;12.30;75.40
49222;DHT22;35047;37.588;-122.048;2023-02-13T14:59:24;12.20;75.10
49222;DHT22;35047;37.588;-122.048;2023-02-13T15:02:08;12.30;75.30
49222;DHT22;35047;37.588;-122.048;2023-02-13T15:04:45;12.20;75.00
49222;DHT22;35047;37.588;-122.048;2023-02-13T15:07:16;12.30;75.50
49222;DHT22;35047;37.588;-122.048;2023-02-13T15:09:51;12.30;75.20
49222;DHT22;35047;37.588;-122.048;2023-02-13T15:12:34;12.30;75.00
49222;DHT22;35047;37.588;-122.048;2023-02-13T15:15:04;12.30;75.10
49222;DHT22;35047;37.588;-122.048;2023-02-13T15:17:43;12.30;74.90
49222;DHT22;35047;37.588;-122.048;2023-02-13T15:20:23;12.30;74.90
49222;DHT22;35047;37.588;-122.048;2023-02-13T15:22:52;12.20;74.70
49222;DHT22;35047;37.588;-122.048;2023-02-13T15:25:31;12.20;74.90
49222;DHT22;35047;37.588;-122.048;2023-02-13T15:27:59;12.20;75.20
49222;DHT22;35047;37.588;-122.048;2023-02-13T15:30:35;12.20;75.00
49222;DHT22;35047;37.588;-122.048;2023-02-13T15:33:18;12.20;75.30
49222;DHT22;35047;37.588;-122.048;2023-02-13T15:35:46;12.20;75.30
49222;DHT22;35047;37.588;-122.048;2023-02-13T15:38:29;12.20;75.40
49222;DHT22;35047;37.588;-122.048;2023-02-13T15:41:11;12.30;75.80
49222;DHT22;35047;37.588;-122.048;2023-02-13T15:43:45;12.30;76.20
49222;DHT22;35047;37.588;-122.048;2023-02-13T15:48:52;12.30;76.90
49222;DHT22;35047;37.588;-122.048;2023-02-13T15:51:24;12.40;77.50
49222;DHT22;35047;37.588;-122.048;2023-02-13T15:53:58;12.40;77.60
49222;DHT22;35047;37.588;-122.048;2023-02-13T15:56:25;12.40;77.40
49222;DHT22;35047;37.588;-122.048;2023-02-13T15:58:55;12.50;77.80
49222;DHT22;35047;37.588;-122.048;2023-02-13T16:01:23;12.50;78.00
49222;DHT22;35047;37.588;-122.048;2023-02-13T16:04:05;12.60;78.20
49222;DHT22;35047;37.588;-122.048;2023-02-13T16:06:33;12.60;78.30
49222;DHT22;35047;37.588;-122.048;2023-02-13T16:09:01;12.80;78.40
49222;DHT22;35047;37.588;-122.048;2023-02-13T16:11:38;12.80;78.50
49222;DHT22;35047;37.588;-122.048;2023-02-13T16:14:22;12.90;78.50
49222;DHT22;35047;37.588;-122.048;2023-02-13T16:17:03;13.00;78.70
49222;DHT22;35047;37.588;-122.048;2023-02-13T16:19:31;13.00;78.50
49222;DHT22;35047;37.588;-122.048;2023-02-13T16:22:04;13.10;78.50
49222;DHT22;35047;37.588;-122.048;2023-02-13T16:24:32;13.20;78.60
49222;DHT22;35047;37.588;-122.048;2023-02-13T16:26:59;13.30;78.70
49222;DHT22;35047;37.588;-122.048;2023-02-13T16:29:27;13.30;78.50
49222;DHT22;35047;37.588;-122.048;2023-02-13T16:32:03;13.20;78.20
49222;DHT22;35047;37.588;-122.048;2023-02-13T16:34:32;13.40;79.10
49222;DHT22;35047;37.588;-122.048;2023-02-13T16:36:58;13.50;79.20
49222;DHT22;35047;37.588;-122.048;2023-02-13T16:39:29;13.50;79.40
49222;DHT22;35047;37.588;-122.048;2023-02-13T16:41:59;13.60;79.60
49222;DHT22;35047;37.588;-122.048;2023-02-13T16:44:30;13.70;79.70
49222;DHT22;35047;37.588;-122.048;2023-02-13T16:47:02;13.80;79.70
49222;DHT22;35047;37.588;-122.048;2023-02-13T16:49:34;13.80;79.20
49222;DHT22;35047;37.588;-122.048;2023-02-13T16:52:15;13.90;80.20
49222;DHT22;35047;37.588;-122.048;2023-02-13T17:02:28;14.40;81.40
49222;DHT22;35047;37.588;-122.048;2023-02-13T17:07:29;14.80;79.10
49222;DHT22;35047;37.588;-122.048;2023-02-13T17:10:06;15.10;79.50
49222;DHT22;35047;37.588;-122.048;2023-02-13T17:12:37;15.30;78.40
49222;DHT22;35047;37.588;-122.048;2023-02-13T17:15:06;15.60;76.80
49222;DHT22;35047;37.588;-122.048;2023-02-13T17:17:37;15.80;76.40
49222;DHT22;35047;37.588;-122.048;2023-02-13T17:20:05;16.20;77.70
49222;DHT22;35047;37.588;-122.048;2023-02-13T17:22:42;16.40;75.10
49222;DHT22;35047;37.588;-122.048;2023-02-13T17:25:19;16.70;75.20
49222;DHT22;35047;37.588;-122.048;2023-02-13T17:27:48;17.00;74.90
49222;DHT22;35047;37.588;-122.048;2023-02-13T17:30:19;17.30;75.00
49222;DHT22;35047;37.588;-122.048;2023-02-13T17:32:47;17.40;74.00
49222;DHT22;35047;37.588;-122.048;2023-02-13T17:35:15;17.60;74.00
49222;DHT22;35047;37.588;-122.048;2023-02-13T17:37:43;17.90;73.50
49222;DHT22;35047;37.588;-122.048;2023-02-13T17:40:19;18.10;72.90
49222;DHT22;35047;37.588;-122.048;2023-02-13T17:42:50;18.30;71.50
49222;DHT22;35047;37.588;-122.048;2023-02-13T17:45:19;18.60;69.60
49222;DHT22;35047;37.588;-122.048;2023-02-13T17:47:46;18.70;69.00
49222;DHT22;35047;37.588;-122.048;2023-02-13T17:50:14;19.00;70.10
49222;DHT22;35047;37.588;-122.048;2023-02-13T17:52:42;19.20;67.60
49222;DHT22;35047;37.588;-122.048;2023-02-13T17:55:23;19.50;68.00
49222;DHT22;35047;37.588;-122.048;2023-02-13T17:57:52;19.70;66.50
49222;DHT22;35047;37.588;-122.048;2023-02-13T18:00:22;20.00;67.30
49222;DHT22;35047;37.588;-122.048;2023-02-13T18:02:51;20.20;66.40
49222;DHT22;35047;37.588;-122.048;2023-02-13T18:05:18;20.40;66.30
49222;DHT22;35047;37.588;-122.048;2023-02-13T18:07:45;20.30;64.50